createdAt,value
2023-03-05T00:01:24.498Z,100.00
2023-03-05T00:03:53.633Z,100.00
2023-03-05T00:06:22.575Z,100.00
2023-03-05T00:08:51.980Z,100.00
2023-03-05T00:11:20.937Z,100.00
2023-03-05T00:13:52.222Z,100.00
2023-03-05T00:16:21.388Z,100.00
2023-03-05T00:18:49.953Z,100.00
2023-03-05T00:21:26.168Z,100.00
2023-03-05T00:23:55.056Z,100.00
2023-03-05T00:26:24.665Z,100.00
2023-03-05T00:28:53.369Z,100.00
2023-03-05T00:31:23.106Z,100.00
2023-03-05T00:33:54.952Z,100.00
2023-03-05T00:36:25.338Z,100.00
2023-03-05T00:38:53.513Z,100.00
2023-03-05T00:41:21.791Z,100.00
2023-03-05T00:43:50.069Z,100.00
2023-03-05T00:46:18.780Z,100.00
2023-03-05T00:48:46.827Z,100.00
2023-03-05T00:51:14.963Z,100.00
2023-03-05T00:53:42.970Z,100.00
2023-03-05T00:56:13.600Z,100.00
2023-03-05T00:58:41.881Z,100.00
2023-03-05T01:01:10.158Z,100.00
2023-03-05T01:03:38.529Z,100.00
2023-03-05T01:06:08.656Z,100.00
2023-03-05T01:08:37.024Z,100.00
2023-03-05T01:11:08.985Z,100.00
2023-03-05T01:13:37.567Z,100.00
2023-03-05T01:16:06.095Z,100.00
2023-03-05T01:18:34.937Z,100.00
2023-03-05T01:21:03.925Z,100.00
2023-03-05T01:23:34.554Z,100.00
2023-03-05T01:26:02.835Z,100.00
2023-03-05T01:28:30.924Z,100.00
2023-03-05T01:30:59.184Z,100.00
2023-03-05T01:33:27.456Z,100.00
2023-03-05T01:35:55.564Z,100.00
2023-03-05T01:38:23.914Z,100.00
2023-03-05T01:40:52.901Z,100.00
2023-03-05T01:43:23.492Z,100.00
2023-03-05T01:46:10.405Z,100.00
2023-03-05T01:48:39.237Z,100.00
2023-03-05T01:51:07.815Z,100.00
2023-03-05T01:53:36.429Z,100.00
2023-03-05T01:56:05.234Z,100.00
2023-03-05T01:58:33.774Z,100.00
2023-03-05T02:01:02.053Z,100.00
2023-03-05T02:03:30.641Z,100.00
2023-03-05T02:05:58.908Z,100.00
2023-03-05T02:08:26.985Z,100.00
2023-03-05T02:11:00.503Z,100.00
2023-03-05T02:13:31.868Z,100.00
2023-03-05T02:16:01.231Z,100.00
2023-03-05T02:18:29.408Z,100.00
2023-03-05T02:20:57.618Z,100.00
2023-03-05T02:23:30.479Z,100.00
2023-03-05T02:25:58.544Z,100.00
2023-03-05T02:28:30.717Z,100.00
2023-03-05T02:30:58.881Z,100.00
2023-03-05T02:33:26.955Z,100.00
2023-03-05T02:35:55.673Z,100.00
2023-03-05T02:38:24.633Z,100.00
2023-03-05T02:40:53.625Z,100.00
2023-03-05T02:43:21.909Z,100.00
2023-03-05T02:45:50.295Z,100.00
2023-03-05T02:48:18.975Z,100.00
2023-03-05T02:50:47.758Z,100.00
2023-03-05T02:53:17.056Z,100.00
2023-03-05T02:55:48.920Z,100.00
2023-03-05T02:58:17.507Z,100.00
2023-03-05T03:00:47.049Z,100.00
2023-03-05T03:03:15.439Z,100.00
2023-03-05T03:05:43.464Z,100.00
2023-03-05T03:08:11.564Z,100.00
2023-03-05T03:10:39.607Z,100.00
2023-03-05T03:13:07.795Z,100.00
2023-03-05T03:15:38.222Z,100.00
2023-03-05T03:18:06.177Z,100.00
2023-03-05T03:20:35.173Z,100.00
2023-03-05T03:23:03.556Z,100.00
2023-03-05T03:25:32.202Z,100.00
2023-03-05T03:28:00.522Z,100.00
2023-03-05T03:30:32.283Z,100.00
2023-03-05T03:33:00.552Z,100.00
2023-03-05T03:35:28.672Z,100.00
2023-03-05T03:37:56.900Z,100.00
2023-03-05T03:40:25.004Z,100.00
2023-03-05T03:42:53.565Z,100.00
2023-03-05T03:45:24.192Z,100.00
2023-03-05T03:47:52.597Z,100.00
2023-03-05T03:50:21.869Z,100.00
2023-03-05T03:52:50.046Z,100.00
2023-03-05T03:55:18.320Z,100.00
2023-03-05T03:57:46.494Z,100.00
2023-03-05T04:00:14.988Z,100.00
2023-03-05T04:02:43.441Z,100.00
2023-03-05T04:05:12.048Z,100.00
2023-03-05T04:07:40.319Z,100.00
2023-03-05T04:10:09.777Z,100.00
2023-03-05T04:12:38.100Z,100.00
2023-03-05T04:15:08.070Z,100.00
2023-03-05T04:17:36.199Z,100.00
2023-03-05T04:20:05.930Z,100.00
2023-03-05T04:22:33.843Z,100.00
2023-03-05T04:25:06.550Z,100.00
2023-03-05T04:27:34.757Z,100.00
2023-03-05T04:30:02.797Z,100.00
2023-03-05T04:32:31.098Z,100.00
2023-03-05T04:34:59.247Z,100.00
2023-03-05T04:37:27.625Z,100.00
2023-03-05T04:39:56.205Z,100.00
2023-03-05T04:42:24.483Z,100.00
2023-03-05T04:44:52.657Z,100.00
2023-03-05T04:47:20.938Z,100.00
2023-03-05T04:49:48.901Z,100.00
2023-03-05T04:52:17.074Z,100.00
2023-03-05T04:54:45.554Z,100.00
2023-03-05T04:57:13.935Z,100.00
2023-03-05T04:59:41.901Z,100.00
2023-03-05T05:02:10.081Z,100.00
2023-03-05T05:04:38.361Z,100.00
2023-03-05T05:07:07.865Z,100.00
2023-03-05T05:09:35.938Z,100.00
2023-03-05T05:12:04.423Z,100.00
2023-03-05T05:14:34.229Z,100.00
2023-03-05T05:17:05.270Z,100.00
2023-03-05T05:19:36.570Z,100.00
2023-03-05T05:22:04.695Z,100.00
2023-03-05T05:24:32.966Z,100.00
2023-03-05T05:27:01.045Z,100.00
2023-03-05T05:29:29.420Z,100.00
2023-03-05T05:31:57.635Z,100.00
2023-03-05T05:34:26.174Z,100.00
2023-03-05T05:36:54.201Z,100.00
2023-03-05T05:39:22.431Z,100.00
2023-03-05T05:41:51.436Z,100.00
2023-03-05T05:44:19.806Z,100.00
2023-03-05T05:46:47.851Z,100.00
2023-03-05T05:49:16.153Z,100.00
2023-03-05T05:51:44.640Z,100.00
2023-03-05T05:54:13.529Z,100.00
2023-03-05T05:56:41.805Z,100.00
2023-03-05T05:59:10.591Z,100.00
2023-03-05T06:01:38.820Z,100.00
2023-03-05T06:04:06.941Z,100.00
2023-03-05T06:06:35.520Z,100.00
2023-03-05T06:09:04.317Z,100.00
2023-03-05T06:11:32.483Z,100.00
2023-03-05T06:14:03.041Z,100.00
2023-03-05T06:16:31.230Z,100.00
2023-03-05T06:19:00.283Z,100.00
2023-03-05T06:21:28.379Z,99.80
2023-03-05T06:23:58.846Z,98.18
2023-03-05T06:26:27.176Z,95.78
2023-03-05T06:28:55.489Z,94.71
2023-03-05T06:31:27.916Z,91.43
2023-03-05T06:33:57.349Z,89.45
2023-03-05T06:36:26.315Z,88.38
2023-03-05T06:38:54.899Z,79.46
2023-03-05T06:41:27.269Z,76.46
2023-03-05T06:43:55.664Z,73.51
2023-03-05T06:46:28.094Z,72.58
2023-03-05T06:48:57.428Z,72.51
2023-03-05T06:51:27.160Z,70.37
2023-03-05T06:53:55.667Z,67.36
2023-03-05T06:56:23.881Z,66.59
2023-03-05T06:58:52.367Z,65.55
2023-03-05T07:01:21.037Z,66.15
2023-03-05T07:03:52.616Z,64.98
2023-03-05T07:06:21.378Z,65.68
2023-03-05T07:08:49.721Z,65.03
2023-03-05T07:11:19.385Z,66.06
2023-03-05T07:13:48.282Z,66.98
2023-03-05T07:16:17.901Z,67.21
2023-03-05T07:18:46.480Z,68.41
2023-03-05T07:21:17.194Z,68.64
2023-03-05T07:23:45.795Z,67.31
2023-03-05T07:26:14.020Z,66.56
2023-03-05T07:28:42.855Z,65.13
2023-03-05T07:31:15.482Z,63.64
2023-03-05T07:33:43.503Z,63.88
2023-03-05T07:36:12.341Z,64.43
2023-03-05T07:38:40.449Z,65.05
2023-03-05T07:41:10.629Z,65.32
2023-03-05T07:43:39.379Z,64.64
2023-03-05T07:46:08.951Z,64.64
2023-03-05T07:48:37.476Z,64.50
2023-03-05T07:51:16.272Z,64.86
2023-03-05T07:53:45.385Z,65.15
2023-03-05T07:56:14.343Z,64.44
2023-03-05T07:58:42.491Z,64.17
2023-03-05T08:01:13.461Z,64.65
2023-03-05T08:03:42.445Z,64.71
2023-03-05T08:06:12.203Z,63.95
2023-03-05T08:08:40.272Z,63.40
2023-03-05T08:11:12.914Z,63.74
2023-03-05T08:13:41.442Z,63.43
2023-03-05T08:16:14.682Z,63.26
2023-03-05T08:18:42.802Z,63.43
2023-03-05T08:21:27.152Z,62.88
2023-03-05T08:23:58.648Z,61.77
2023-03-05T08:26:28.731Z,61.83
2023-03-05T08:28:58.537Z,61.60
2023-03-05T08:31:27.867Z,61.72
2023-03-05T08:33:57.546Z,60.88
2023-03-05T08:36:25.718Z,60.48
2023-03-05T08:38:53.790Z,59.99
2023-03-05T08:41:22.487Z,59.32
2023-03-05T08:43:50.937Z,58.54
2023-03-05T08:46:20.343Z,58.07
2023-03-05T08:48:49.562Z,57.13
2023-03-05T08:51:19.673Z,57.06
2023-03-05T08:53:47.894Z,54.06
2023-03-05T08:56:16.205Z,54.37
2023-03-05T08:58:44.847Z,54.44
2023-03-05T09:01:13.385Z,53.51
2023-03-05T09:03:41.660Z,52.42
2023-03-05T09:06:10.385Z,53.84
2023-03-05T09:08:39.249Z,53.80
2023-03-05T09:11:08.541Z,53.36
2023-03-05T09:13:36.798Z,52.65
2023-03-05T09:16:06.728Z,51.99
2023-03-05T09:18:36.878Z,51.45
2023-03-05T09:21:08.854Z,51.45
2023-03-05T09:23:36.982Z,51.89
2023-03-05T09:26:06.205Z,51.13
2023-03-05T09:28:34.241Z,51.56
2023-03-05T09:31:03.998Z,50.94
2023-03-05T09:33:33.088Z,51.16
2023-03-05T09:36:02.080Z,49.58
2023-03-05T09:38:30.450Z,50.20
2023-03-05T09:41:07.754Z,49.81
2023-03-05T09:43:59.854Z,50.10
2023-03-05T09:46:27.956Z,51.14
2023-03-05T09:48:58.609Z,50.55
2023-03-05T09:51:31.642Z,51.28
2023-03-05T09:54:19.892Z,52.20
2023-03-05T09:56:50.546Z,52.50
2023-03-05T09:59:21.537Z,54.72
2023-03-05T10:01:50.596Z,54.17
2023-03-05T10:04:24.671Z,53.17
2023-03-05T10:07:02.956Z,55.00
2023-03-05T10:09:37.076Z,54.12
2023-03-05T10:12:08.474Z,52.68
2023-03-05T10:14:40.027Z,50.18
2023-03-05T10:17:28.315Z,49.52
2023-03-05T10:20:14.965Z,49.85
2023-03-05T10:22:55.339Z,48.64
2023-03-05T10:25:34.354Z,48.38
2023-03-05T10:28:28.766Z,48.44
2023-03-05T10:31:15.057Z,47.48
2023-03-05T10:33:50.295Z,46.78
2023-03-05T10:36:18.575Z,46.60
2023-03-05T10:39:00.111Z,46.63
2023-03-05T10:41:48.509Z,45.99
2023-03-05T10:44:22.028Z,46.39
2023-03-05T10:46:50.725Z,46.66
2023-03-05T10:49:33.104Z,45.73
2023-03-05T10:52:04.171Z,45.32
2023-03-05T10:54:34.168Z,44.93
2023-03-05T10:57:14.215Z,45.74
2023-03-05T10:59:49.969Z,45.74
2023-03-05T11:02:18.868Z,45.69
2023-03-05T11:04:50.418Z,46.04
2023-03-05T11:07:18.567Z,44.66
2023-03-05T11:10:07.574Z,44.80
2023-03-05T11:12:36.846Z,46.17
2023-03-05T11:15:10.957Z,45.18
2023-03-05T11:17:44.826Z,45.35
2023-03-05T11:20:29.033Z,45.19
2023-03-05T11:23:09.483Z,45.59
2023-03-05T11:25:58.026Z,46.24
2023-03-05T11:28:34.029Z,46.38
2023-03-05T11:31:28.831Z,46.96
2023-03-05T11:34:21.651Z,46.52
2023-03-05T11:36:56.511Z,46.78
2023-03-05T11:39:26.050Z,47.01
2023-03-05T11:41:57.599Z,47.31
2023-03-05T11:44:39.402Z,47.60
2023-03-05T11:47:25.782Z,48.00
2023-03-05T11:50:02.397Z,48.13
2023-03-05T11:52:32.351Z,47.36
2023-03-05T11:55:18.933Z,48.33
2023-03-05T11:58:13.298Z,47.87
2023-03-05T12:00:43.176Z,47.56
2023-03-05T12:03:25.832Z,48.24
2023-03-05T12:05:56.413Z,48.53
2023-03-05T12:08:31.340Z,47.89
2023-03-05T12:11:01.525Z,47.28
2023-03-05T12:13:43.301Z,46.58
2023-03-05T12:16:17.379Z,47.09
2023-03-05T12:18:45.333Z,47.91
2023-03-05T12:21:33.124Z,48.28
2023-03-05T12:24:02.680Z,49.01
2023-03-05T12:26:49.542Z,50.01
2023-03-05T12:29:29.480Z,50.38
2023-03-05T12:31:58.682Z,50.19
2023-03-05T12:34:35.721Z,50.33
2023-03-05T12:37:04.291Z,50.87
2023-03-05T12:39:51.091Z,51.28
2023-03-05T12:42:28.339Z,51.51
2023-03-05T12:45:16.108Z,51.87
2023-03-05T12:48:05.128Z,51.92
2023-03-05T12:50:39.557Z,51.65
2023-03-05T12:53:15.992Z,51.61
2023-03-05T12:55:47.520Z,51.42
2023-03-05T12:58:37.902Z,52.18
2023-03-05T13:01:11.815Z,52.13
2023-03-05T13:03:48.682Z,52.51
2023-03-05T13:06:35.933Z,52.83
2023-03-05T13:09:07.350Z,52.65
2023-03-05T13:11:39.150Z,53.23
2023-03-05T13:14:25.879Z,53.71
2023-03-05T13:16:53.851Z,54.34
2023-03-05T13:19:22.721Z,54.45
2023-03-05T13:21:57.709Z,55.05
2023-03-05T13:24:25.707Z,55.51
2023-03-05T13:26:54.055Z,55.64
2023-03-05T13:29:23.388Z,56.22
2023-03-05T13:31:56.220Z,56.46
2023-03-05T13:34:46.615Z,56.62
2023-03-05T13:37:17.564Z,57.36
2023-03-05T13:39:48.952Z,57.11
2023-03-05T13:42:23.405Z,57.68
2023-03-05T13:45:02.140Z,57.96
2023-03-05T13:47:32.135Z,57.99
2023-03-05T13:50:05.953Z,58.63
2023-03-05T13:52:37.131Z,58.74
2023-03-05T13:55:12.347Z,58.92
2023-03-05T13:57:59.185Z,59.02
2023-03-05T14:00:30.272Z,59.10
2023-03-05T14:03:00.575Z,59.40
2023-03-05T14:05:31.461Z,59.64
2023-03-05T14:07:59.605Z,59.78
2023-03-05T14:10:33.114Z,59.74
2023-03-05T14:13:02.739Z,59.22
2023-03-05T14:15:35.247Z,59.02
2023-03-05T14:18:12.684Z,58.73
2023-03-05T14:20:41.756Z,59.01
2023-03-05T14:23:46.630Z,59.25
2023-03-05T14:26:34.479Z,58.73
2023-03-05T14:29:11.553Z,58.71
2023-03-05T14:32:00.096Z,58.07
2023-03-05T14:34:31.038Z,58.45
2023-03-05T14:37:00.867Z,58.29
2023-03-05T14:39:31.883Z,58.14
2023-03-05T14:42:24.767Z,58.53
2023-03-05T14:44:53.260Z,58.82
2023-03-05T14:47:22.208Z,59.14
2023-03-05T14:49:51.019Z,59.29
2023-03-05T14:52:20.957Z,59.42
2023-03-05T14:54:49.553Z,59.91
2023-03-05T14:57:23.906Z,60.05
2023-03-05T14:59:56.159Z,60.94
2023-03-05T15:02:26.177Z,60.93
2023-03-05T15:04:54.392Z,61.18
2023-03-05T15:07:29.350Z,61.25
2023-03-05T15:09:58.009Z,61.57
2023-03-05T15:12:26.358Z,62.04
2023-03-05T15:14:56.525Z,62.23
2023-03-05T15:17:24.452Z,62.28
2023-03-05T15:19:53.892Z,62.80
2023-03-05T15:22:22.070Z,63.12
2023-03-05T15:24:50.132Z,63.67
2023-03-05T15:27:18.627Z,64.05
2023-03-05T15:29:46.820Z,63.75
2023-03-05T15:32:14.921Z,63.88
2023-03-05T15:34:43.006Z,64.25
2023-03-05T15:37:11.043Z,64.24
2023-03-05T15:39:39.545Z,64.76
2023-03-05T15:42:07.821Z,64.86
2023-03-05T15:44:36.033Z,64.93
2023-03-05T15:47:04.088Z,64.98
2023-03-05T15:49:33.223Z,65.54
2023-03-05T15:52:01.257Z,65.24
2023-03-05T15:54:29.522Z,65.40
2023-03-05T15:56:57.530Z,65.74
2023-03-05T15:59:26.737Z,65.95
2023-03-05T16:01:54.995Z,65.78
2023-03-05T16:04:23.082Z,66.19
2023-03-05T16:06:51.230Z,66.53
2023-03-05T16:09:20.657Z,66.49
2023-03-05T16:11:51.659Z,66.75
2023-03-05T16:14:22.187Z,66.86
2023-03-05T16:16:51.060Z,67.32
2023-03-05T16:19:19.849Z,68.01
2023-03-05T16:21:48.283Z,68.19
2023-03-05T16:24:16.399Z,68.96
2023-03-05T16:26:44.477Z,69.49
2023-03-05T16:29:12.739Z,69.73
2023-03-05T16:31:45.063Z,70.35
2023-03-05T16:34:14.414Z,70.64
2023-03-05T16:36:46.992Z,70.41
2023-03-05T16:39:15.250Z,70.53
2023-03-05T16:41:43.291Z,70.89
2023-03-05T16:44:11.944Z,71.38
2023-03-05T16:46:42.166Z,71.92
2023-03-05T16:49:10.414Z,72.01
2023-03-05T16:51:38.685Z,72.31
2023-03-05T16:54:08.475Z,72.34
2023-03-05T16:56:38.186Z,73.15
2023-03-05T16:59:06.339Z,73.37
2023-03-05T17:01:34.587Z,73.45
2023-03-05T17:04:02.815Z,74.12
2023-03-05T17:06:31.771Z,74.00
2023-03-05T17:09:01.637Z,75.69
2023-03-05T17:11:30.064Z,76.28
2023-03-05T17:13:59.115Z,76.82
2023-03-05T17:16:27.284Z,77.41
2023-03-05T17:18:55.868Z,77.14
2023-03-05T17:21:24.068Z,77.08
2023-03-05T17:23:52.117Z,77.48
2023-03-05T17:26:20.397Z,77.23
2023-03-05T17:28:48.464Z,77.64
2023-03-05T17:31:16.682Z,78.36
2023-03-05T17:33:44.937Z,78.69
2023-03-05T17:36:17.403Z,78.74
2023-03-05T17:38:46.559Z,80.25
2023-03-05T17:41:15.500Z,80.99
2023-03-05T17:43:45.256Z,80.89
2023-03-05T17:46:13.330Z,80.87
2023-03-05T17:48:41.883Z,80.45
2023-03-05T17:51:11.755Z,80.62
2023-03-05T17:53:40.407Z,80.50
2023-03-05T17:56:09.289Z,81.07
2023-03-05T17:58:37.509Z,81.87
2023-03-05T18:01:05.697Z,82.13
2023-03-05T18:03:34.134Z,82.05
2023-03-05T18:06:02.722Z,82.67
2023-03-05T18:08:30.984Z,83.70
2023-03-05T18:10:59.196Z,83.87
2023-03-05T18:13:27.203Z,83.29
2023-03-05T18:15:57.992Z,84.37
2023-03-05T18:18:26.323Z,84.36
2023-03-05T18:20:54.278Z,83.72
2023-03-05T18:23:22.565Z,83.13
2023-03-05T18:25:50.693Z,83.18
2023-03-05T18:28:18.811Z,83.65
2023-03-05T18:30:47.017Z,84.93
2023-03-05T18:33:19.940Z,84.99
2023-03-05T18:35:52.091Z,85.15
2023-03-05T18:38:24.426Z,85.66
2023-03-05T18:40:53.377Z,85.87
2023-03-05T18:43:22.086Z,85.80
2023-03-05T18:45:51.168Z,86.16
2023-03-05T18:48:19.795Z,86.23
2023-03-05T18:50:51.393Z,87.47
2023-03-05T18:53:19.899Z,87.38
2023-03-05T18:55:49.748Z,87.83
2023-03-05T18:58:19.361Z,88.14
2023-03-05T19:00:49.998Z,87.76
2023-03-05T19:03:20.141Z,88.27
2023-03-05T19:05:51.303Z,88.40
2023-03-05T19:08:21.984Z,88.11
2023-03-05T19:10:49.972Z,89.37
2023-03-05T19:13:40.076Z,90.59
2023-03-05T19:16:29.514Z,90.32
2023-03-05T19:19:13.867Z,90.41
2023-03-05T19:21:45.861Z,90.65
2023-03-05T19:24:15.966Z,91.65
2023-03-05T19:26:44.144Z,92.62
2023-03-05T19:29:13.050Z,91.85
2023-03-05T19:31:41.832Z,92.03
2023-03-05T19:34:09.955Z,92.54
2023-03-05T19:36:37.996Z,92.61
2023-03-05T19:39:07.234Z,92.58
2023-03-05T19:41:35.447Z,92.40
2023-03-05T19:44:04.165Z,93.52
2023-03-05T19:46:32.730Z,93.86
2023-03-05T19:49:08.717Z,92.95
2023-03-05T19:51:36.889Z,93.79
2023-03-05T19:54:05.766Z,96.37
2023-03-05T19:56:33.804Z,98.62
2023-03-05T19:59:01.890Z,97.20
2023-03-05T20:01:33.190Z,95.51
2023-03-05T20:04:02.296Z,96.50
2023-03-05T20:06:31.854Z,98.33
2023-03-05T20:09:00.149Z,99.51
2023-03-05T20:11:28.570Z,98.32
2023-03-05T20:13:57.284Z,99.03
2023-03-05T20:16:26.790Z,98.83
2023-03-05T20:18:55.547Z,98.91
2023-03-05T20:21:31.038Z,99.49
2023-03-05T20:24:01.810Z,99.77
2023-03-05T20:26:29.868Z,99.08
2023-03-05T20:28:58.055Z,99.20
2023-03-05T20:31:27.215Z,99.78
2023-03-05T20:33:56.345Z,100.00
2023-03-05T20:36:24.581Z,100.00
2023-03-05T20:38:52.638Z,100.00
2023-03-05T20:41:23.724Z,100.00
2023-03-05T20:43:52.269Z,100.00
2023-03-05T20:46:21.996Z,100.00
2023-03-05T20:48:51.563Z,100.00
2023-03-05T20:51:27.723Z,100.00
2023-03-05T20:53:58.344Z,100.00
2023-03-05T20:56:28.070Z,100.00
2023-03-05T20:58:58.364Z,100.00
2023-03-05T21:01:27.139Z,100.00
2023-03-05T21:03:58.487Z,100.00
2023-03-05T21:06:27.455Z,100.00
2023-03-05T21:08:55.390Z,100.00
2023-03-05T21:11:23.704Z,100.00
2023-03-05T21:13:52.030Z,100.00
2023-03-05T21:16:22.678Z,100.00
2023-03-05T21:18:51.411Z,100.00
2023-03-05T21:21:19.515Z,100.00
2023-03-05T21:23:47.992Z,100.00
2023-03-05T21:26:16.005Z,100.00
2023-03-05T21:28:44.158Z,100.00
2023-03-05T21:31:15.799Z,100.00
2023-03-05T21:33:43.904Z,100.00
2023-03-05T21:36:12.215Z,100.00
2023-03-05T21:38:40.762Z,100.00
2023-03-05T21:41:08.906Z,100.00
2023-03-05T21:43:36.906Z,100.00
2023-03-05T21:46:05.121Z,100.00
2023-03-05T21:48:33.245Z,100.00
2023-03-05T21:51:13.829Z,100.00
2023-03-05T21:53:46.963Z,100.00
2023-03-05T21:56:24.568Z,100.00
2023-03-05T21:58:53.212Z,100.00
2023-03-05T22:01:22.044Z,100.00
2023-03-05T22:03:50.578Z,100.00
2023-03-05T22:06:18.995Z,100.00
2023-03-05T22:08:47.433Z,100.00
2023-03-05T22:11:17.965Z,100.00
2023-03-05T22:13:45.886Z,99.77
2023-03-05T22:16:22.090Z,99.18
2023-03-05T22:18:50.432Z,98.36
2023-03-05T22:21:20.395Z,97.60
2023-03-05T22:23:48.745Z,97.26
2023-03-05T22:26:16.867Z,96.61
2023-03-05T22:28:44.901Z,94.89
2023-03-05T22:31:20.194Z,94.31
2023-03-05T22:33:48.333Z,93.61
2023-03-05T22:36:16.498Z,91.20
2023-03-05T22:38:44.791Z,90.77
2023-03-05T22:41:14.366Z,89.82
2023-03-05T22:43:42.710Z,89.05
2023-03-05T22:46:15.622Z,88.24
2023-03-05T22:48:44.249Z,86.75
2023-03-05T22:51:12.730Z,86.60
2023-03-05T22:53:40.873Z,85.62
2023-03-05T22:56:13.756Z,84.49
2023-03-05T22:58:41.827Z,84.16
2023-03-05T23:01:22.364Z,84.03
2023-03-05T23:04:29.104Z,83.44
2023-03-05T23:07:12.754Z,82.71
2023-03-05T23:09:41.217Z,82.47
2023-03-05T23:12:09.457Z,82.08
2023-03-05T23:14:37.770Z,82.37
2023-03-05T23:17:06.297Z,81.66
2023-03-05T23:19:39.626Z,81.57
2023-03-05T23:22:08.888Z,80.54
2023-03-05T23:24:37.619Z,80.76
2023-03-05T23:27:05.994Z,80.15
2023-03-05T23:30:22.103Z,80.39
2023-03-05T23:32:51.949Z,80.33
2023-03-05T23:35:22.071Z,80.48
2023-03-05T23:37:50.120Z,79.99
2023-03-05T23:40:22.792Z,80.00
2023-03-05T23:42:51.290Z,80.40
2023-03-05T23:45:20.310Z,80.72
2023-03-05T23:47:49.227Z,81.19
2023-03-05T23:50:18.924Z,81.64
2023-03-05T23:52:47.220Z,81.84
2023-03-05T23:55:19.284Z,82.29
2023-03-05T23:57:47.694Z,82.82
